Time;durP1;ratioP1;P1;durP2;ratioP2;P2;SDS_P1;SDS_P2;PMS_P1;PMS_P2;Temp;Humidity;BMP_temperature;BMP_pressure;BME280_temperature;BME280_humidity;BME280_pressure;Samples;Min_cycle;Max_cycle;Signal;HPM_P1;HPM_P2
2022/11/10 00:01:38;;;;;;;2.35;1.65;;;;;;;13.78;69.39;100826.44;18626945;31;20087;-60
2022/11/10 00:11:42;;;;;;;1.00;0.88;;;;;;;13.72;69.69;100823.91;18626839;31;20395;-60
2022/11/10 00:21:46;;;;;;;0.52;0.40;;;;;;;13.74;69.73;100822.12;18626656;31;20160;-60
2022/11/10 00:31:49;;;;;;;2.10;1.42;;;;;;;13.84;69.41;100841.25;18626142;31;20087;-60
2022/11/10 00:41:54;;;;;;;0.60;0.60;;;;;;;13.77;69.76;100845.69;18599980;31;20088;-60
2022/11/10 00:51:57;;;;;;;0.55;0.55;;;;;;;13.82;69.67;100840.41;18559924;32;20110;-60
2022/11/10 01:02:02;;;;;;;0.95;0.50;;;;;;;13.86;69.62;100855.25;18559411;32;20096;-60
2022/11/10 01:12:05;;;;;;;2.40;1.10;;;;;;;13.79;69.90;100837.81;18560484;32;20092;-60
2022/11/10 01:22:10;;;;;;;3.78;0.75;;;;;;;13.82;69.93;100837.78;18566706;32;20410;-59
2022/11/10 01:32:13;;;;;;;7.37;1.70;;;;;;;13.88;69.89;100845.62;18565928;32;20477;-60
2022/11/10 01:42:24;;;;;;;2.08;1.30;;;;;;;13.80;70.23;100850.94;18565957;32;20682;-60
2022/11/10 01:52:27;;;;;;;0.50;0.50;;;;;;;13.79;70.44;100850.94;18565531;32;20129;-60
2022/11/10 02:02:36;;;;;;;2.70;1.60;;;;;;;13.58;71.12;100847.59;18565274;31;20089;-60
2022/11/10 02:12:39;;;;;;;2.65;1.77;;;;;;;13.68;71.01;100838.78;18565272;32;20431;-60
2022/11/10 02:22:44;;;;;;;1.48;0.88;;;;;;;13.61;71.16;100847.56;18564753;32;20100;-60
2022/11/10 02:32:47;;;;;;;1.40;1.33;;;;;;;13.69;71.05;100848.41;18564450;31;20135;-60
2022/11/10 02:42:52;;;;;;;1.55;0.75;;;;;;;13.70;70.95;100860.63;18564455;32;20107;-60
2022/11/10 02:52:55;;;;;;;1.25;1.08;;;;;;;13.74;70.72;100861.47;18564465;32;20119;-60
2022/11/10 03:03:00;;;;;;;1.08;1.02;;;;;;;13.76;70.60;100870.19;18564009;32;20088;-60
2022/11/10 03:13:03;;;;;;;0.70;0.70;;;;;;;13.81;70.46;100885.91;18564487;32;20092;-60
2022/11/10 03:23:08;;;;;;;1.70;1.60;;;;;;;13.88;70.27;100898.94;18563490;32;20402;-60
2022/11/10 03:33:11;;;;;;;0.40;0.40;;;;;;;13.53;71.89;100904.47;18562361;32;20455;-60
2022/11/10 03:43:16;;;;;;;2.55;1.25;;;;;;;13.67;70.99;100907.87;18562567;32;20488;-60
2022/11/10 03:53:19;;;;;;;2.60;1.02;;;;;;;13.60;70.95;100912.28;18562334;32;20161;-60
2022/11/10 04:03:24;;;;;;;0.75;0.75;;;;;;;13.67;70.51;100917.50;18561929;31;20100;-60
2022/11/10 04:23:50;;;;;;;0.50;0.50;;;;;;;13.69;70.56;100927.09;18561408;31;20134;-59
2022/11/10 04:33:53;;;;;;;0.32;0.32;;;;;;;13.55;71.08;100936.78;18560834;32;20110;-60
2022/11/10 04:43:58;;;;;;;3.28;1.83;;;;;;;13.66;70.73;100944.59;18560822;32;20128;-59
2022/11/10 04:54:02;;;;;;;2.67;1.48;;;;;;;13.70;70.24;100947.19;18558600;32;20092;-60
2022/11/10 05:04:06;;;;;;;1.83;1.40;;;;;;;13.70;70.20;100947.19;18559359;32;20099;-60
2022/11/10 05:14:10;;;;;;;0.68;0.60;;;;;;;13.64;70.36;100956.88;18559875;32;20094;-60
2022/11/10 05:24:14;;;;;;;2.85;1.83;;;;;;;13.72;69.97;100974.28;18558103;32;20085;-60
2022/11/10 05:34:17;;;;;;;1.33;1.30;;;;;;;13.73;69.87;100983.91;18558468;31;20088;-60
2022/11/10 05:44:22;;;;;;;2.05;0.85;;;;;;;13.63;70.00;100992.72;18557040;32;20109;-60
2022/11/10 05:54:25;;;;;;;2.37;0.55;;;;;;;13.70;69.98;101007.53;18556226;32;20111;-60
2022/11/10 06:04:29;;;;;;;0.98;0.98;;;;;;;13.64;70.02;101022.44;18563499;32;20369;-60
2022/11/10 06:14:32;;;;;;;0.60;0.60;;;;;;;13.68;69.96;101034.66;18565020;32;20119;-60
2022/11/10 06:24:37;;;;;;;0.77;0.77;;;;;;;13.72;70.05;101057.41;18564748;32;20154;-59
2022/11/10 06:34:40;;;;;;;1.52;1.42;;;;;;;13.85;69.76;101081.84;18564142;32;20115;-60
2022/11/10 06:44:44;;;;;;;0.47;0.47;;;;;;;13.84;69.72;101093.19;18565279;32;20092;-59
2022/11/10 06:54:48;;;;;;;0.60;0.60;;;;;;;14.04;68.79;101106.22;18564014;32;20096;-60
2022/11/10 07:04:52;;;;;;;0.55;0.50;;;;;;;14.19;67.63;101115.75;18563864;32;20531;-60
2022/11/10 07:14:55;;;;;;;0.65;0.65;;;;;;;14.20;67.45;101133.25;18562578;32;20111;-59
2022/11/10 07:25:00;;;;;;;0.73;0.73;;;;;;;14.40;65.85;101146.28;18563283;32;20107;-59
2022/11/10 07:35:03;;;;;;;0.57;0.57;;;;;;;14.52;65.13;101142.72;18562714;32;20120;-60
2022/11/10 07:45:09;;;;;;;0.28;0.28;;;;;;;14.50;64.25;101162.84;18562885;32;20084;-59
2022/11/10 07:55:12;;;;;;;0.60;0.60;;;;;;;14.68;64.51;101180.25;18561901;32;20092;-60
2022/11/10 08:05:16;;;;;;;1.58;1.15;;;;;;;15.01;63.75;101176.53;18560761;32;20096;-60
2022/11/10 08:15:20;;;;;;;0.82;0.82;;;;;;;15.02;63.84;101179.16;18558239;31;20252;-60
2022/11/10 08:25:24;;;;;;;0.98;0.70;;;;;;;15.09;63.70;101201.00;18561925;31;20144;-59
2022/11/10 08:35:35;;;;;;;3.62;1.85;;;;;;;15.25;62.88;101194.75;18560579;31;20144;-60
2022/11/10 08:45:40;;;;;;;1.48;1.10;;;;;;;15.27;63.09;101210.53;18560569;31;20092;-60
2022/11/10 08:55:44;;;;;;;0.75;0.75;;;;;;;15.44;62.06;101227.88;18560125;32;20088;-60
2022/11/10 09:05:49;;;;;;;0.75;0.60;;;;;;;15.71;60.88;101245.19;18559582;32;20138;-60
2022/11/10 09:16:04;;;;;;;0.60;0.60;;;;;;;15.81;60.40;101248.56;18560091;31;20431;-60
2022/11/10 09:26:09;;;;;;;0.70;0.70;;;;;;;15.90;59.01;101271.31;18556435;31;20151;-60
2022/11/10 09:36:12;;;;;;;1.02;0.70;;;;;;;16.06;59.13;101279.97;18561474;31;20464;-60
2022/11/10 09:46:22;;;;;;;0.47;0.43;;;;;;;16.18;57.99;101276.31;18566267;31;20115;-60
2022/11/10 09:56:30;;;;;;;1.08;0.65;;;;;;;16.64;57.90;101275.72;18565752;32;20112;-60
2022/11/10 10:06:41;;;;;;;0.32;0.32;;;;;;;16.85;56.12;101288.63;18565621;32;20137;-60
2022/11/10 10:17:09;;;;;;;1.02;0.57;;;;;;;17.01;56.60;101298.09;18564560;31;20088;-60
2022/11/10 10:27:20;;;;;;;1.12;1.05;;;;;;;17.28;55.80;101290.66;18561319;32;20376;-60
2022/11/10 10:37:25;;;;;;;1.33;0.73;;;;;;;17.32;55.47;101294.97;18549017;32;20478;-60
2022/11/10 10:47:38;;;;;;;0.45;0.45;;;;;;;17.53;53.94;101290.25;18552637;31;20330;-60
2022/11/10 10:57:50;;;;;;;0.20;0.20;;;;;;;17.65;54.73;101318.22;18593992;31;20087;-60
2022/11/10 11:07:56;;;;;;;0.85;0.85;;;;;;;17.63;54.85;101317.38;18629265;31;20164;-60
2022/11/10 11:18:01;;;;;;;0.35;0.35;;;;;;;17.66;54.83;101317.31;18610321;31;20118;-60
2022/11/10 11:28:12;;;;;;;0.30;0.30;;;;;;;17.51;54.89;101325.50;18620209;31;20090;-60
2022/11/10 11:38:17;;;;;;;0.73;0.62;;;;;;;17.09;55.92;101334.06;18626568;31;20180;-60
2022/11/10 11:48:40;;;;;;;1.27;1.17;;;;;;;16.80;56.09;101356.41;18611552;31;20084;-59
2022/11/10 11:58:44;;;;;;;0.62;0.47;;;;;;;16.65;56.36;101366.22;18626968;31;20215;-59
2022/11/10 12:08:53;;;;;;;1.25;1.15;;;;;;;16.52;56.90;101368.13;18627159;31;20106;-59
2022/11/10 12:19:04;;;;;;;1.35;1.25;;;;;;;16.36;57.01;101372.69;18626261;31;20089;-59
2022/11/10 12:29:19;;;;;;;0.37;0.37;;;;;;;16.26;56.71;101384.22;18625956;31;20106;-59
2022/11/10 12:39:25;;;;;;;1.65;0.52;;;;;;;16.21;57.50;101394.81;18611365;31;20092;-60
2022/11/10 12:49:33;;;;;;;0.40;0.40;;;;;;;16.30;57.33;101394.72;18625617;31;20440;-59
2022/11/10 12:59:38;;;;;;;1.10;0.82;;;;;;;16.32;57.04;101394.72;18624962;31;20107;-60
2022/11/10 13:09:43;;;;;;;0.77;0.77;;;;;;;16.31;56.76;101407.00;18627190;31;20100;-60
2022/11/10 13:19:52;;;;;;;1.95;0.68;;;;;;;16.45;57.04;101404.22;18617617;31;20185;-60
2022/11/10 13:29:57;;;;;;;0.45;0.45;;;;;;;16.65;55.82;101421.59;18617047;31;20124;-59
2022/11/10 13:40:40;;;;;;;0.98;0.90;;;;;;;16.34;56.31;101427.19;18631982;31;20140;-60
2022/11/10 13:50:50;;;;;;;1.47;0.80;;;;;;;16.19;57.13;101431.69;18362197;32;20122;-60
2022/11/10 14:01:29;;;;;;;0.82;0.82;;;;;;;16.25;57.08;101433.41;18350315;32;20398;-60
2022/11/10 14:11:38;;;;;;;2.05;1.35;;;;;;;16.09;56.52;101446.72;18345377;32;20466;-60
2022/11/10 14:21:45;;;;;;;0.32;0.32;;;;;;;15.92;57.93;101470.53;18446529;31;20100;-60
2022/11/10 14:31:50;;;;;;;1.75;0.47;;;;;;;16.06;57.14;101477.47;18549763;31;20425;-60
2022/11/10 14:41:53;;;;;;;1.80;1.17;;;;;;;15.94;58.02;101494.25;18500314;32;20100;-60
2022/11/10 14:52:00;;;;;;;0.70;0.70;;;;;;;15.89;58.36;101494.25;18491683;32;20093;-60
2022/11/10 15:02:03;;;;;;;0.90;0.82;;;;;;;15.58;58.63;101496.19;18434792;32;20101;-60
2022/11/10 15:12:20;;;;;;;1.35;0.65;;;;;;;15.84;58.14;101503.94;18433981;32;20107;-59
2022/11/10 15:22:29;;;;;;;0.40;0.40;;;;;;;15.63;58.39;101516.31;18433962;32;20138;-60
2022/11/10 15:32:35;;;;;;;0.43;0.43;;;;;;;15.44;58.97;101527.81;18507553;32;20114;-59
2022/11/10 15:42:38;;;;;;;0.50;0.50;;;;;;;15.38;59.24;101545.41;18562703;32;20129;-59
2022/11/10 15:52:43;;;;;;;3.03;1.85;;;;;;;15.51;59.03;101550.59;18547993;32;20096;-60
2022/11/10 16:02:46;;;;;;;0.57;0.57;;;;;;;15.43;59.28;101569.06;18562251;32;20096;-59
2022/11/10 16:12:51;;;;;;;0.40;0.40;;;;;;;14.99;60.30;101578.84;18547329;32;20107;-59
2022/11/10 16:22:54;;;;;;;1.27;1.20;;;;;;;14.65;61.22;101597.22;18555592;31;75785;-60
2022/11/10 16:32:58;;;;;;;0.57;0.57;;;;;;;14.85;60.87;101607.78;18550714;32;20459;-60
2022/11/10 16:43:01;;;;;;;0.88;0.60;;;;;;;14.82;60.51;101607.75;18545838;32;20136;-59
2022/11/10 16:53:11;;;;;;;1.60;1.35;;;;;;;14.36;61.81;101624.34;18545544;32;20124;-60
2022/11/10 17:03:16;;;;;;;2.67;1.27;;;;;;;14.36;61.59;101640.97;18543060;32;20358;-59
2022/11/10 17:13:21;;;;;;;0.50;0.50;;;;;;;14.32;62.14;101673.38;18542640;32;20334;-59
2022/11/10 17:23:25;;;;;;;0.77;0.77;;;;;;;14.31;62.10;101690.00;18540922;32;20379;-60
2022/11/10 17:33:30;;;;;;;0.60;0.60;;;;;;;14.33;61.48;101705.78;18539428;32;20713;-59
2022/11/10 17:43:34;;;;;;;0.75;0.75;;;;;;;14.45;60.66;101711.06;18557163;31;20124;-60
2022/11/10 17:53:38;;;;;;;1.00;1.00;;;;;;;14.43;60.56;101725.94;18569238;31;20088;-60
2022/11/10 18:03:42;;;;;;;0.82;0.82;;;;;;;14.61;59.83;101735.63;18550955;32;20123;-59
2022/11/10 18:13:47;;;;;;;1.02;1.02;;;;;;;14.69;59.29;101730.38;18565287;32;20493;-60
2022/11/10 18:23:50;;;;;;;0.62;0.62;;;;;;;14.49;59.49;101739.09;18565332;32;20136;-60
2022/11/10 18:33:55;;;;;;;0.55;0.55;;;;;;;14.23;59.03;101758.28;18564615;32;20479;-60
2022/11/10 18:43:58;;;;;;;0.90;0.70;;;;;;;14.09;59.24;101771.34;18564118;32;20147;-60
2022/11/10 18:54:03;;;;;;;0.50;0.50;;;;;;;14.59;56.74;101797.81;18563902;32;20140;-61
2022/11/10 19:04:07;;;;;;;0.88;0.82;;;;;;;14.63;55.09;101789.06;18562619;32;20114;-60
2022/11/10 19:14:11;;;;;;;2.00;0.98;;;;;;;14.65;53.51;101820.59;18561558;32;20088;-61
2022/11/10 19:24:15;;;;;;;1.23;0.70;;;;;;;14.59;53.15;101824.09;18560573;32;20110;-60
2022/11/10 19:34:31;;;;;;;0.43;0.43;;;;;;;14.46;54.41;101844.19;18577036;31;20092;-61
2022/11/10 19:44:34;;;;;;;0.73;0.70;;;;;;;14.49;54.84;101852.06;18624395;31;20144;-60
2022/11/10 19:54:39;;;;;;;0.40;0.40;;;;;;;14.36;54.27;101866.88;18623210;31;20108;-61
2022/11/10 20:15:01;;;;;;;0.95;0.73;;;;;;;14.44;53.72;101872.19;18626135;31;20112;-60
2022/11/10 20:25:06;;;;;;;0.50;0.50;;;;;;;14.26;53.41;101884.34;18618863;31;20125;-60
2022/11/10 20:35:10;;;;;;;0.70;0.70;;;;;;;12.75;57.71;101897.75;18625373;31;20186;-61
2022/11/10 20:45:14;;;;;;;0.60;0.60;;;;;;;12.97;58.61;101912.03;18610807;31;20114;-60
2022/11/10 20:55:19;;;;;;;1.23;0.77;;;;;;;13.45;57.31;101924.81;18621803;31;20088;-61
2022/11/10 21:05:42;;;;;;;0.62;0.60;;;;;;;12.86;58.67;101940.72;18625080;31;20204;-60
2022/11/10 21:15:49;;;;;;;0.65;0.65;;;;;;;12.44;59.52;101941.87;18621044;31;20092;-60
2022/11/10 21:25:53;;;;;;;0.37;0.37;;;;;;;11.69;61.72;101935.41;18620866;31;20329;-60
2022/11/10 21:35:58;;;;;;;1.85;1.23;;;;;;;11.57;61.28;101937.78;18629820;31;20436;-60
2022/11/10 21:46:01;;;;;;;0.70;0.70;;;;;;;11.05;62.80;101944.66;18628447;31;20384;-60
2022/11/10 21:56:07;;;;;;;0.50;0.50;;;;;;;10.88;62.93;101959.09;18630112;31;20083;-60
2022/11/10 22:06:13;;;;;;;1.20;0.90;;;;;;;10.58;63.49;101973.25;18615750;31;20122;-60
2022/11/10 22:26:43;;;;;;;1.15;1.08;;;;;;;10.24;64.23;102001.97;18629099;31;20100;-60
2022/11/10 22:36:49;;;;;;;0.75;0.75;;;;;;;10.01;65.63;102012.72;18596485;31;20104;-61
2022/11/10 22:46:52;;;;;;;0.55;0.55;;;;;;;10.13;65.38;101997.38;18550861;32;20084;-60
2022/11/10 22:56:56;;;;;;;0.80;0.80;;;;;;;10.07;65.92;101997.22;18564981;32;20092;-60
2022/11/10 23:07:00;;;;;;;1.42;1.37;;;;;;;9.94;65.71;102001.25;18563840;32;20357;-60
2022/11/10 23:17:05;;;;;;;1.33;0.80;;;;;;;9.82;64.64;101988.75;18563469;32;20089;-60
2022/11/10 23:27:09;;;;;;;0.85;0.82;;;;;;;9.34;64.94;102004.81;18563199;32;20185;-60
2022/11/10 23:37:13;;;;;;;1.00;0.95;;;;;;;9.28;64.70;102001.19;18563001;32;20138;-60
2022/11/10 23:47:16;;;;;;;1.10;1.05;;;;;;;8.99;65.24;102001.22;18562773;32;20092;-60
2022/11/10 23:57:21;;;;;;;1.65;1.55;;;;;;;8.91;65.16;102004.44;18561631;32;20084;-60
